Cherokee, Alabama
Current Conditions -  °F | °C
As of 10:53 PM on Friday 19 Dec 2014 (Local Time) from KMSL Reporting Station
Overcast Overcast  
Wind Chill: 36°   Ceiling: 7000
Heat Index: 39°   Visibility: 10mi
Dew Point: 31°   Wind: 5mph
Humidity: 73%   Direction: 50°NE
Pressure: 30.22"   Gusts: NA
Location:  34.76°N, 87.97°W
Report Text: KMSL 200453Z AUTO 05004KT 10SM OVC070 04/M01 A3022 RMK AO2 RAB00E24 SLP233 P0000 T00391006
Loading
Personal Weather Stations






























Interactive Weather Map New forecast layout! Learn more

10-Day Weather Forecast

Advertisements
Track Severe Weather on mobile